sensor_id;sensor_type;location;lat;lon;timestamp;pressure;altitude;pressure_sealevel;temperature;humidity
23303;BME280;11820;48.738;9.092;2022-12-18T00:00:29;97313.88;;;-5.32;nan
23303;BME280;11820;48.738;9.092;2022-12-18T00:02:55;97312.69;;;-5.25;nan
23303;BME280;11820;48.738;9.092;2022-12-18T00:05:21;97321.63;;;-5.18;nan
23303;BME280;11820;48.738;9.092;2022-12-18T00:07:46;97315.69;;;-5.17;nan
23303;BME280;11820;48.738;9.092;2022-12-18T00:10:11;97316.00;;;-5.23;nan
23303;BME280;11820;48.738;9.092;2022-12-18T00:12:37;97316.25;;;-5.29;nan
23303;BME280;11820;48.738;9.092;2022-12-18T00:15:02;97306.50;;;-5.18;nan
23303;BME280;11820;48.738;9.092;2022-12-18T00:17:28;97315.47;;;-5.12;nan
23303;BME280;11820;48.738;9.092;2022-12-18T00:19:53;97323.25;;;-5.17;nan
23303;BME280;11820;48.738;9.092;2022-12-18T00:22:18;97321.25;;;-5.10;nan
23303;BME280;11820;48.738;9.092;2022-12-18T00:24:43;97318.38;;;-5.20;nan
23303;BME280;11820;48.738;9.092;2022-12-18T00:27:09;97316.44;;;-5.15;nan
23303;BME280;11820;48.738;9.092;2022-12-18T00:29:34;97306.19;;;-5.29;nan
23303;BME280;11820;48.738;9.092;2022-12-18T00:31:59;97306.47;;;-5.35;nan
23303;BME280;11820;48.738;9.092;2022-12-18T00:34:25;97309.50;;;-5.45;nan
23303;BME280;11820;48.738;9.092;2022-12-18T00:36:50;97315.91;;;-5.21;nan
23303;BME280;11820;48.738;9.092;2022-12-18T00:39:15;97314.06;;;-5.18;nan
23303;BME280;11820;48.738;9.092;2022-12-18T00:41:41;97318.97;;;-5.15;nan
23303;BME280;11820;48.738;9.092;2022-12-18T00:44:25;97325.25;;;-5.23;nan
23303;BME280;11820;48.738;9.092;2022-12-18T00:46:50;97320.59;;;-5.14;nan
23303;BME280;11820;48.738;9.092;2022-12-18T00:49:17;97324.78;;;-5.14;nan
23303;BME280;11820;48.738;9.092;2022-12-18T00:51:43;97319.31;;;-5.22;nan
23303;BME280;11820;48.738;9.092;2022-12-18T00:54:08;97322.47;;;-5.36;nan
23303;BME280;11820;48.738;9.092;2022-12-18T00:56:36;97322.78;;;-5.25;nan
23303;BME280;11820;48.738;9.092;2022-12-18T00:59:02;97328.66;;;-5.24;nan
23303;BME280;11820;48.738;9.092;2022-12-18T01:01:27;97330.72;;;-5.15;nan
23303;BME280;11820;48.738;9.092;2022-12-18T01:03:53;97340.88;;;-5.17;nan
23303;BME280;11820;48.738;9.092;2022-12-18T01:06:18;97330.97;;;-5.20;nan
23303;BME280;11820;48.738;9.092;2022-12-18T01:08:44;97323.66;;;-5.43;nan
23303;BME280;11820;48.738;9.092;2022-12-18T01:11:11;97331.66;;;-5.35;nan
23303;BME280;11820;48.738;9.092;2022-12-18T01:13:38;97322.88;;;-5.62;nan
23303;BME280;11820;48.738;9.092;2022-12-18T01:16:04;97318.75;;;-5.46;nan
23303;BME280;11820;48.738;9.092;2022-12-18T01:18:29;97320.53;;;-5.48;nan
23303;BME280;11820;48.738;9.092;2022-12-18T01:20:54;97315.28;;;-5.43;nan
23303;BME280;11820;48.738;9.092;2022-12-18T01:23:20;97329.84;;;-5.50;nan
23303;BME280;11820;48.738;9.092;2022-12-18T01:25:45;97330.53;;;-5.46;nan
23303;BME280;11820;48.738;9.092;2022-12-18T01:28:11;97331.34;;;-5.46;nan
23303;BME280;11820;48.738;9.092;2022-12-18T01:30:36;97328.94;;;-5.49;nan
23303;BME280;11820;48.738;9.092;2022-12-18T01:33:04;97327.31;;;-5.50;nan
23303;BME280;11820;48.738;9.092;2022-12-18T01:35:29;97319.91;;;-5.53;nan
23303;BME280;11820;48.738;9.092;2022-12-18T01:37:55;97327.63;;;-5.56;nan
23303;BME280;11820;48.738;9.092;2022-12-18T01:40:20;97335.91;;;-5.54;nan
23303;BME280;11820;48.738;9.092;2022-12-18T01:42:51;97329.09;;;-5.52;nan
23303;BME280;11820;48.738;9.092;2022-12-18T01:45:31;97334.13;;;-5.52;nan
23303;BME280;11820;48.738;9.092;2022-12-18T01:48:15;97334.53;;;-5.42;nan
23303;BME280;11820;48.738;9.092;2022-12-18T01:50:42;97332.25;;;-5.47;nan
23303;BME280;11820;48.738;9.092;2022-12-18T01:53:14;97328.56;;;-5.40;nan
23303;BME280;11820;48.738;9.092;2022-12-18T01:55:55;97325.56;;;-5.48;nan
23303;BME280;11820;48.738;9.092;2022-12-18T01:58:39;97328.84;;;-5.46;nan
23303;BME280;11820;48.738;9.092;2022-12-18T02:01:05;97324.59;;;-5.45;nan
23303;BME280;11820;48.738;9.092;2022-12-18T02:03:31;97319.81;;;-5.33;nan
23303;BME280;11820;48.738;9.092;2022-12-18T02:18:57;97324.69;;;-5.30;nan
23303;BME280;11820;48.738;9.092;2022-12-18T02:21:44;97327.16;;;-5.28;nan
23303;BME280;11820;48.738;9.092;2022-12-18T02:27:05;97317.22;;;-5.14;nan
23303;BME280;11820;48.738;9.092;2022-12-18T02:29:39;97322.50;;;-5.19;nan
23303;BME280;11820;48.738;9.092;2022-12-18T02:32:12;97327.03;;;-5.25;nan
23303;BME280;11820;48.738;9.092;2022-12-18T02:34:39;97329.44;;;-5.24;nan
23303;BME280;11820;48.738;9.092;2022-12-18T02:37:08;97333.69;;;-5.24;nan
23303;BME280;11820;48.738;9.092;2022-12-18T02:39:37;97338.66;;;-5.23;nan
23303;BME280;11820;48.738;9.092;2022-12-18T02:42:04;97342.81;;;-5.22;nan
23303;BME280;11820;48.738;9.092;2022-12-18T02:44:33;97346.66;;;-5.15;nan
23303;BME280;11820;48.738;9.092;2022-12-18T02:46:59;97336.75;;;-5.18;nan
23303;BME280;11820;48.738;9.092;2022-12-18T02:54:51;97337.91;;;-5.25;nan
23303;BME280;11820;48.738;9.092;2022-12-18T03:05:40;97333.28;;;-5.34;nan
23303;BME280;11820;48.738;9.092;2022-12-18T03:08:12;97329.44;;;-5.41;nan
23303;BME280;11820;48.738;9.092;2022-12-18T03:10:43;97331.66;;;-5.35;nan
23303;BME280;11820;48.738;9.092;2022-12-18T03:13:14;97347.06;;;-5.41;nan
23303;BME280;11820;48.738;9.092;2022-12-18T03:15:46;97344.84;;;-5.30;nan
23303;BME280;11820;48.738;9.092;2022-12-18T03:18:22;97353.00;;;-5.25;nan
23303;BME280;11820;48.738;9.092;2022-12-18T03:20:51;97351.25;;;-5.23;nan
23303;BME280;11820;48.738;9.092;2022-12-18T03:23:21;97354.13;;;-5.30;nan
23303;BME280;11820;48.738;9.092;2022-12-18T03:25:51;97361.84;;;-5.33;nan
23303;BME280;11820;48.738;9.092;2022-12-18T03:28:22;97355.41;;;-5.40;nan
23303;BME280;11820;48.738;9.092;2022-12-18T03:30:50;97359.41;;;-5.53;nan
23303;BME280;11820;48.738;9.092;2022-12-18T03:33:24;97355.03;;;-5.50;nan
23303;BME280;11820;48.738;9.092;2022-12-18T03:35:51;97356.53;;;-5.64;nan
23303;BME280;11820;48.738;9.092;2022-12-18T03:38:16;97353.41;;;-5.51;nan
23303;BME280;11820;48.738;9.092;2022-12-18T03:40:53;97353.13;;;-5.45;nan
23303;BME280;11820;48.738;9.092;2022-12-18T03:44:31;97353.13;;;-5.45;nan
23303;BME280;11820;48.738;9.092;2022-12-18T03:46:30;97346.38;;;-5.44;nan
23303;BME280;11820;48.738;9.092;2022-12-18T03:49:02;97350.47;;;-5.42;nan
23303;BME280;11820;48.738;9.092;2022-12-18T03:51:41;97359.25;;;-5.50;nan
23303;BME280;11820;48.738;9.092;2022-12-18T03:54:09;97352.66;;;-5.53;nan
23303;BME280;11820;48.738;9.092;2022-12-18T03:56:40;97346.72;;;-5.52;nan
23303;BME280;11820;48.738;9.092;2022-12-18T03:59:09;97353.97;;;-5.63;nan
23303;BME280;11820;48.738;9.092;2022-12-18T04:01:39;97347.75;;;-5.56;nan
23303;BME280;11820;48.738;9.092;2022-12-18T04:04:06;97349.25;;;-5.52;nan
23303;BME280;11820;48.738;9.092;2022-12-18T04:06:33;97353.28;;;-5.48;nan
23303;BME280;11820;48.738;9.092;2022-12-18T04:09:00;97348.31;;;-5.49;nan
23303;BME280;11820;48.738;9.092;2022-12-18T04:11:25;97346.88;;;-5.55;nan
23303;BME280;11820;48.738;9.092;2022-12-18T04:13:55;97342.56;;;-5.53;nan
23303;BME280;11820;48.738;9.092;2022-12-18T04:16:20;97347.22;;;-5.62;nan
23303;BME280;11820;48.738;9.092;2022-12-18T04:18:45;97353.22;;;-5.65;nan
23303;BME280;11820;48.738;9.092;2022-12-18T04:21:11;97350.09;;;-5.70;nan
23303;BME280;11820;48.738;9.092;2022-12-18T04:23:36;97351.38;;;-5.61;nan
23303;BME280;11820;48.738;9.092;2022-12-18T04:26:01;97351.97;;;-5.75;nan
23303;BME280;11820;48.738;9.092;2022-12-18T04:28:27;97352.00;;;-5.56;nan
23303;BME280;11820;48.738;9.092;2022-12-18T04:30:52;97359.84;;;-5.45;nan
23303;BME280;11820;48.738;9.092;2022-12-18T04:33:18;97370.91;;;-5.48;nan
23303;BME280;11820;48.738;9.092;2022-12-18T04:35:43;97372.94;;;-5.56;nan
23303;BME280;11820;48.738;9.092;2022-12-18T04:38:09;97368.13;;;-5.79;nan
23303;BME280;11820;48.738;9.092;2022-12-18T04:40:35;97370.28;;;-5.71;nan
23303;BME280;11820;48.738;9.092;2022-12-18T04:43:01;97358.97;;;-5.80;nan
23303;BME280;11820;48.738;9.092;2022-12-18T04:45:27;97362.81;;;-5.73;nan
23303;BME280;11820;48.738;9.092;2022-12-18T04:47:52;97365.06;;;-5.67;nan
23303;BME280;11820;48.738;9.092;2022-12-18T04:50:17;97355.13;;;-5.70;nan
23303;BME280;11820;48.738;9.092;2022-12-18T04:52:42;97349.22;;;-5.69;nan
23303;BME280;11820;48.738;9.092;2022-12-18T04:55:08;97338.97;;;-5.83;nan
23303;BME280;11820;48.738;9.092;2022-12-18T04:57:33;97336.25;;;-5.78;nan
23303;BME280;11820;48.738;9.092;2022-12-18T04:59:59;97336.78;;;-5.90;nan
23303;BME280;11820;48.738;9.092;2022-12-18T05:02:24;97341.16;;;-5.94;nan
23303;BME280;11820;48.738;9.092;2022-12-18T05:04:49;97328.75;;;-5.98;nan
23303;BME280;11820;48.738;9.092;2022-12-18T05:07:15;97336.72;;;-5.89;nan
23303;BME280;11820;48.738;9.092;2022-12-18T05:09:40;97340.88;;;-5.88;nan
23303;BME280;11820;48.738;9.092;2022-12-18T05:12:05;97339.25;;;-5.89;nan
23303;BME280;11820;48.738;9.092;2022-12-18T05:14:31;97341.00;;;-5.91;nan
23303;BME280;11820;48.738;9.092;2022-12-18T05:16:56;97352.56;;;-5.87;nan
23303;BME280;11820;48.738;9.092;2022-12-18T05:19:21;97353.31;;;-5.85;nan
23303;BME280;11820;48.738;9.092;2022-12-18T05:21:47;97347.94;;;-5.96;nan
23303;BME280;11820;48.738;9.092;2022-12-18T05:24:12;97347.53;;;-6.24;nan
23303;BME280;11820;48.738;9.092;2022-12-18T05:26:38;97347.72;;;-6.10;nan
23303;BME280;11820;48.738;9.092;2022-12-18T05:29:03;97353.06;;;-6.17;nan
23303;BME280;11820;48.738;9.092;2022-12-18T05:31:28;97357.00;;;-6.10;nan
23303;BME280;11820;48.738;9.092;2022-12-18T05:33:54;97372.81;;;-6.46;nan
23303;BME280;11820;48.738;9.092;2022-12-18T05:36:19;97374.69;;;-6.71;nan
23303;BME280;11820;48.738;9.092;2022-12-18T05:38:44;97377.59;;;-6.60;nan
23303;BME280;11820;48.738;9.092;2022-12-18T05:41:10;97377.44;;;-6.57;nan
23303;BME280;11820;48.738;9.092;2022-12-18T05:43:36;97378.91;;;-6.72;nan
23303;BME280;11820;48.738;9.092;2022-12-18T05:46:07;97362.19;;;-6.73;nan
23303;BME280;11820;48.738;9.092;2022-12-18T05:48:33;97361.56;;;-6.78;nan
23303;BME280;11820;48.738;9.092;2022-12-18T05:51:07;97364.88;;;-6.57;nan
23303;BME280;11820;48.738;9.092;2022-12-18T05:53:33;97361.63;;;-6.59;nan
23303;BME280;11820;48.738;9.092;2022-12-18T05:56:02;97348.38;;;-6.63;nan
23303;BME280;11820;48.738;9.092;2022-12-18T05:58:27;97354.47;;;-6.68;nan
23303;BME280;11820;48.738;9.092;2022-12-18T06:00:53;97359.22;;;-6.62;nan
23303;BME280;11820;48.738;9.092;2022-12-18T06:03:18;97359.50;;;-6.68;nan
23303;BME280;11820;48.738;9.092;2022-12-18T06:05:44;97358.78;;;-6.52;nan
23303;BME280;11820;48.738;9.092;2022-12-18T06:08:11;97379.84;;;-6.74;nan
23303;BME280;11820;48.738;9.092;2022-12-18T06:10:36;97372.28;;;-6.94;nan
23303;BME280;11820;48.738;9.092;2022-12-18T06:13:02;97372.97;;;-6.91;nan
23303;BME280;11820;48.738;9.092;2022-12-18T06:15:28;97370.16;;;-6.83;nan
23303;BME280;11820;48.738;9.092;2022-12-18T06:17:53;97371.44;;;-6.73;nan
23303;BME280;11820;48.738;9.092;2022-12-18T06:20:19;97376.38;;;-6.72;nan
23303;BME280;11820;48.738;9.092;2022-12-18T06:22:45;97378.59;;;-6.64;nan
23303;BME280;11820;48.738;9.092;2022-12-18T06:25:10;97386.50;;;-6.53;nan
23303;BME280;11820;48.738;9.092;2022-12-18T06:27:35;97392.19;;;-6.48;nan
23303;BME280;11820;48.738;9.092;2022-12-18T06:30:01;97385.56;;;-6.51;nan
23303;BME280;11820;48.738;9.092;2022-12-18T06:32:27;97401.53;;;-6.52;nan
23303;BME280;11820;48.738;9.092;2022-12-18T06:34:52;97395.66;;;-6.52;nan
23303;BME280;11820;48.738;9.092;2022-12-18T06:37:19;97386.19;;;-6.46;nan
23303;BME280;11820;48.738;9.092;2022-12-18T06:39:44;97395.97;;;-6.40;nan
23303;BME280;11820;48.738;9.092;2022-12-18T06:42:09;97380.25;;;-6.25;nan
23303;BME280;11820;48.738;9.092;2022-12-18T06:44:35;97378.50;;;-6.23;nan
23303;BME280;11820;48.738;9.092;2022-12-18T06:47:00;97385.47;;;-6.10;nan
23303;BME280;11820;48.738;9.092;2022-12-18T06:49:25;97386.97;;;-6.06;nan
23303;BME280;11820;48.738;9.092;2022-12-18T06:51:51;97389.56;;;-6.07;nan
23303;BME280;11820;48.738;9.092;2022-12-18T06:54:17;97386.91;;;-6.04;nan
23303;BME280;11820;48.738;9.092;2022-12-18T06:56:45;97390.34;;;-6.07;nan
23303;BME280;11820;48.738;9.092;2022-12-18T06:59:10;97389.28;;;-6.01;nan
23303;BME280;11820;48.738;9.092;2022-12-18T07:01:35;97401.81;;;-6.00;nan
23303;BME280;11820;48.738;9.092;2022-12-18T07:04:00;97401.31;;;-5.89;nan
23303;BME280;11820;48.738;9.092;2022-12-18T07:06:26;97405.47;;;-5.88;nan
23303;BME280;11820;48.738;9.092;2022-12-18T07:08:52;97416.44;;;-5.89;nan
23303;BME280;11820;48.738;9.092;2022-12-18T07:11:18;97418.41;;;-5.77;nan
23303;BME280;11820;48.738;9.092;2022-12-18T07:13:44;97417.31;;;-5.72;nan
23303;BME280;11820;48.738;9.092;2022-12-18T07:16:15;97409.81;;;-5.73;nan
23303;BME280;11820;48.738;9.092;2022-12-18T07:18:41;97416.56;;;-5.74;nan
23303;BME280;11820;48.738;9.092;2022-12-18T07:21:12;97418.81;;;-5.68;nan
23303;BME280;11820;48.738;9.092;2022-12-18T07:23:37;97417.84;;;-5.65;nan
23303;BME280;11820;48.738;9.092;2022-12-18T07:26:08;97423.72;;;-5.65;nan
23303;BME280;11820;48.738;9.092;2022-12-18T07:28:34;97416.44;;;-5.52;nan
23303;BME280;11820;48.738;9.092;2022-12-18T07:31:09;97413.63;;;-5.46;nan
23303;BME280;11820;48.738;9.092;2022-12-18T07:33:34;97421.13;;;-5.45;nan
23303;BME280;11820;48.738;9.092;2022-12-18T07:36:04;97425.06;;;-5.58;nan
23303;BME280;11820;48.738;9.092;2022-12-18T07:38:31;97429.16;;;-5.37;nan
23303;BME280;11820;48.738;9.092;2022-12-18T07:41:11;97427.38;;;-5.35;nan
23303;BME280;11820;48.738;9.092;2022-12-18T07:43:37;97424.13;;;-5.37;nan
23303;BME280;11820;48.738;9.092;2022-12-18T07:46:03;97425.34;;;-5.45;nan
23303;BME280;11820;48.738;9.092;2022-12-18T07:48:29;97426.59;;;-5.35;nan
23303;BME280;11820;48.738;9.092;2022-12-18T07:50:58;97427.25;;;-5.32;nan
23303;BME280;11820;48.738;9.092;2022-12-18T07:53:24;97427.84;;;-5.27;nan
23303;BME280;11820;48.738;9.092;2022-12-18T07:55:49;97424.38;;;-5.24;nan
23303;BME280;11820;48.738;9.092;2022-12-18T07:58:14;97435.00;;;-5.18;nan
23303;BME280;11820;48.738;9.092;2022-12-18T08:00:39;97438.41;;;-5.19;nan
23303;BME280;11820;48.738;9.092;2022-12-18T08:03:05;97430.75;;;-5.17;nan
23303;BME280;11820;48.738;9.092;2022-12-18T08:05:30;97436.78;;;-5.20;nan
23303;BME280;11820;48.738;9.092;2022-12-18T08:07:55;97439.31;;;-5.20;nan
23303;BME280;11820;48.738;9.092;2022-12-18T08:10:21;97431.59;;;-5.17;nan
23303;BME280;11820;48.738;9.092;2022-12-18T08:12:51;97433.84;;;-5.11;nan
23303;BME280;11820;48.738;9.092;2022-12-18T08:15:17;97438.38;;;-5.00;nan
23303;BME280;11820;48.738;9.092;2022-12-18T08:17:42;97437.69;;;-5.04;nan
23303;BME280;11820;48.738;9.092;2022-12-18T08:20:08;97442.34;;;-4.95;nan
23303;BME280;11820;48.738;9.092;2022-12-18T08:22:34;97422.03;;;-4.75;nan
23303;BME280;11820;48.738;9.092;2022-12-18T08:25:01;97425.66;;;-4.80;nan
23303;BME280;11820;48.738;9.092;2022-12-18T08:27:26;97434.88;;;-4.79;nan
23303;BME280;11820;48.738;9.092;2022-12-18T08:29:51;97428.50;;;-4.70;nan
23303;BME280;11820;48.738;9.092;2022-12-18T08:32:16;97431.75;;;-4.68;nan
23303;BME280;11820;48.738;9.092;2022-12-18T08:34:42;97434.50;;;-4.55;nan
23303;BME280;11820;48.738;9.092;2022-12-18T08:37:07;97429.91;;;-4.47;nan
23303;BME280;11820;48.738;9.092;2022-12-18T08:39:32;97432.59;;;-4.33;nan
23303;BME280;11820;48.738;9.092;2022-12-18T08:41:59;97429.91;;;-4.30;nan
23303;BME280;11820;48.738;9.092;2022-12-18T08:44:43;97433.47;;;-4.17;nan
23303;BME280;11820;48.738;9.092;2022-12-18T08:47:08;97428.78;;;-4.08;nan
23303;BME280;11820;48.738;9.092;2022-12-18T08:49:34;97433.31;;;-4.14;nan
23303;BME280;11820;48.738;9.092;2022-12-18T08:52:00;97426.91;;;-3.87;nan
23303;BME280;11820;48.738;9.092;2022-12-18T08:54:27;97427.34;;;-3.96;nan
23303;BME280;11820;48.738;9.092;2022-12-18T08:56:53;97423.53;;;-3.55;nan
23303;BME280;11820;48.738;9.092;2022-12-18T08:59:18;97420.94;;;-3.54;nan
23303;BME280;11820;48.738;9.092;2022-12-18T09:01:44;97416.97;;;-3.42;nan
23303;BME280;11820;48.738;9.092;2022-12-18T09:04:10;97415.41;;;-3.45;nan
23303;BME280;11820;48.738;9.092;2022-12-18T09:06:36;97403.66;;;-3.30;nan
23303;BME280;11820;48.738;9.092;2022-12-18T09:09:02;97411.97;;;-3.28;nan
23303;BME280;11820;48.738;9.092;2022-12-18T09:11:28;97416.53;;;-3.20;nan
23303;BME280;11820;48.738;9.092;2022-12-18T09:13:55;97412.41;;;-3.05;nan
23303;BME280;11820;48.738;9.092;2022-12-18T09:16:21;97408.22;;;-2.91;nan
23303;BME280;11820;48.738;9.092;2022-12-18T09:18:47;97408.44;;;-2.80;nan
23303;BME280;11820;48.738;9.092;2022-12-18T09:21:19;97408.03;;;-2.88;nan
23303;BME280;11820;48.738;9.092;2022-12-18T09:23:52;97397.97;;;-2.74;nan
23303;BME280;11820;48.738;9.092;2022-12-18T09:26:18;97399.69;;;-2.74;nan
23303;BME280;11820;48.738;9.092;2022-12-18T09:28:44;97389.78;;;-2.63;nan
23303;BME280;11820;48.738;9.092;2022-12-18T09:31:14;97397.28;;;-2.62;nan
23303;BME280;11820;48.738;9.092;2022-12-18T09:33:40;97395.88;;;-2.52;nan
23303;BME280;11820;48.738;9.092;2022-12-18T09:36:07;97395.91;;;-2.38;nan
23303;BME280;11820;48.738;9.092;2022-12-18T09:38:33;97399.59;;;-2.14;nan
23303;BME280;11820;48.738;9.092;2022-12-18T09:43:45;97409.34;;;-1.94;nan
23303;BME280;11820;48.738;9.092;2022-12-18T09:46:17;97401.94;;;-1.83;nan
23303;BME280;11820;48.738;9.092;2022-12-18T09:48:48;97392.16;;;-1.61;nan
23303;BME280;11820;48.738;9.092;2022-12-18T09:51:18;97390.81;;;-1.53;nan
23303;BME280;11820;48.738;9.092;2022-12-18T09:53:49;97390.34;;;-1.59;nan
23303;BME280;11820;48.738;9.092;2022-12-18T09:56:18;97388.09;;;-1.50;nan
23303;BME280;11820;48.738;9.092;2022-12-18T09:58:55;97384.00;;;-1.38;nan
23303;BME280;11820;48.738;9.092;2022-12-18T10:01:22;97388.31;;;-1.26;nan
23303;BME280;11820;48.738;9.092;2022-12-18T10:03:48;97393.75;;;-1.32;nan
23303;BME280;11820;48.738;9.092;2022-12-18T10:06:19;97400.97;;;-1.12;nan
23303;BME280;11820;48.738;9.092;2022-12-18T10:09:28;97385.31;;;-1.19;nan
23303;BME280;11820;48.738;9.092;2022-12-18T10:15:06;97390.53;;;-0.81;nan
23303;BME280;11820;48.738;9.092;2022-12-18T10:17:45;97391.13;;;-0.51;nan
23303;BME280;11820;48.738;9.092;2022-12-18T10:20:29;97405.97;;;-1.25;nan
23303;BME280;11820;48.738;9.092;2022-12-18T10:23:11;97394.19;;;-0.85;nan
23303;BME280;11820;48.738;9.092;2022-12-18T10:28:18;97385.16;;;-0.38;nan
23303;BME280;11820;48.738;9.092;2022-12-18T10:30:45;97391.94;;;-0.38;nan
23303;BME280;11820;48.738;9.092;2022-12-18T10:33:16;97403.63;;;-0.48;nan
23303;BME280;11820;48.738;9.092;2022-12-18T10:35:42;97394.50;;;-0.13;nan
23303;BME280;11820;48.738;9.092;2022-12-18T10:43:22;97394.19;;;0.53;nan
23303;BME280;11820;48.738;9.092;2022-12-18T10:48:23;97384.56;;;0.82;nan
23303;BME280;11820;48.738;9.092;2022-12-18T10:50:50;97388.38;;;0.64;nan
23303;BME280;11820;48.738;9.092;2022-12-18T10:53:22;97399.00;;;0.20;nan
23303;BME280;11820;48.738;9.092;2022-12-18T10:55:49;97395.69;;;0.68;nan
23303;BME280;11820;48.738;9.092;2022-12-18T10:58:37;97397.97;;;1.20;nan
23303;BME280;11820;48.738;9.092;2022-12-18T11:01:14;97393.13;;;1.85;nan
23303;BME280;11820;48.738;9.092;2022-12-18T11:04:02;97391.31;;;1.30;nan
23303;BME280;11820;48.738;9.092;2022-12-18T11:06:28;97380.66;;;1.12;nan
23303;BME280;11820;48.738;9.092;2022-12-18T11:09:04;97379.13;;;1.57;nan
23303;BME280;11820;48.738;9.092;2022-12-18T11:11:31;97365.56;;;1.22;nan
23303;BME280;11820;48.738;9.092;2022-12-18T11:14:06;97371.09;;;1.84;nan
23303;BME280;11820;48.738;9.092;2022-12-18T11:16:43;97361.69;;;1.85;nan
23303;BME280;11820;48.738;9.092;2022-12-18T11:19:15;97356.53;;;2.19;nan
23303;BME280;11820;48.738;9.092;2022-12-18T11:21:45;97368.59;;;2.61;nan
23303;BME280;11820;48.738;9.092;2022-12-18T11:24:30;97357.63;;;2.92;nan
23303;BME280;11820;48.738;9.092;2022-12-18T11:27:01;97354.72;;;2.97;nan
23303;BME280;11820;48.738;9.092;2022-12-18T11:29:39;97352.88;;;2.88;nan
23303;BME280;11820;48.738;9.092;2022-12-18T11:32:24;97348.69;;;2.87;nan
23303;BME280;11820;48.738;9.092;2022-12-18T11:34:59;97348.31;;;3.02;nan
23303;BME280;11820;48.738;9.092;2022-12-18T11:37:27;97352.03;;;3.09;nan
23303;BME280;11820;48.738;9.092;2022-12-18T11:40:09;97344.66;;;3.15;nan
23303;BME280;11820;48.738;9.092;2022-12-18T11:42:54;97340.78;;;3.32;nan
23303;BME280;11820;48.738;9.092;2022-12-18T11:45:55;97335.34;;;4.07;nan
23303;BME280;11820;48.738;9.092;2022-12-18T11:48:30;97330.44;;;3.95;nan
23303;BME280;11820;48.738;9.092;2022-12-18T11:50:59;97336.31;;;3.86;nan
23303;BME280;11820;48.738;9.092;2022-12-18T11:53:27;97335.81;;;3.71;nan
23303;BME280;11820;48.738;9.092;2022-12-18T11:56:24;97339.00;;;3.84;nan
23303;BME280;11820;48.738;9.092;2022-12-18T12:09:48;97311.59;;;3.34;nan
23303;BME280;11820;48.738;9.092;2022-12-18T12:12:51;97308.66;;;3.18;nan
23303;BME280;11820;48.738;9.092;2022-12-18T12:26:13;97311.88;;;2.14;nan
23303;BME280;11820;48.738;9.092;2022-12-18T12:29:01;97314.66;;;2.11;nan
23303;BME280;11820;48.738;9.092;2022-12-18T12:31:40;97312.34;;;1.86;nan
23303;BME280;11820;48.738;9.092;2022-12-18T12:34:18;97317.75;;;1.70;nan
23303;BME280;11820;48.738;9.092;2022-12-18T12:36:49;97320.34;;;1.81;nan
23303;BME280;11820;48.738;9.092;2022-12-18T12:39:22;97322.44;;;1.87;nan
23303;BME280;11820;48.738;9.092;2022-12-18T12:41:50;97325.09;;;1.75;nan
23303;BME280;11820;48.738;9.092;2022-12-18T12:44:47;97326.56;;;1.66;nan
23303;BME280;11820;48.738;9.092;2022-12-18T12:47:17;97325.03;;;1.64;nan
23303;BME280;11820;48.738;9.092;2022-12-18T12:49:44;97326.47;;;1.79;nan
23303;BME280;11820;48.738;9.092;2022-12-18T12:52:28;97337.13;;;1.73;nan
23303;BME280;11820;48.738;9.092;2022-12-18T12:54:56;97337.63;;;1.44;nan
23303;BME280;11820;48.738;9.092;2022-12-18T12:57:37;97335.78;;;1.46;nan
23303;BME280;11820;48.738;9.092;2022-12-18T13:00:06;97333.84;;;1.60;nan
23303;BME280;11820;48.738;9.092;2022-12-18T13:02:41;97342.88;;;1.64;nan
23303;BME280;11820;48.738;9.092;2022-12-18T13:07:52;97339.69;;;1.73;nan
23303;BME280;11820;48.738;9.092;2022-12-18T13:15:30;97343.38;;;1.69;nan
23303;BME280;11820;48.738;9.092;2022-12-18T13:23:26;97351.28;;;1.43;nan
23303;BME280;11820;48.738;9.092;2022-12-18T13:31:12;97332.03;;;1.04;nan
23303;BME280;11820;48.738;9.092;2022-12-18T13:33:45;97323.47;;;1.29;nan
23303;BME280;11820;48.738;9.092;2022-12-18T13:36:17;97317.69;;;1.38;nan
23303;BME280;11820;48.738;9.092;2022-12-18T13:41:45;97332.00;;;0.93;nan
23303;BME280;11820;48.738;9.092;2022-12-18T13:44:34;97319.03;;;0.96;nan
23303;BME280;11820;48.738;9.092;2022-12-18T13:47:01;97328.34;;;1.08;nan
23303;BME280;11820;48.738;9.092;2022-12-18T13:49:36;97326.38;;;0.88;nan
23303;BME280;11820;48.738;9.092;2022-12-18T13:52:03;97325.97;;;0.94;nan
23303;BME280;11820;48.738;9.092;2022-12-18T13:54:41;97320.28;;;0.91;nan
23303;BME280;11820;48.738;9.092;2022-12-18T13:57:26;97322.19;;;0.76;nan
23303;BME280;11820;48.738;9.092;2022-12-18T13:59:52;97331.66;;;0.74;nan
23303;BME280;11820;48.738;9.092;2022-12-18T14:02:25;97325.88;;;0.72;nan
23303;BME280;11820;48.738;9.092;2022-12-18T14:04:51;97326.09;;;0.69;nan
23303;BME280;11820;48.738;9.092;2022-12-18T14:07:20;97329.91;;;0.51;nan
23303;BME280;11820;48.738;9.092;2022-12-18T14:09:50;97330.22;;;0.34;nan
23303;BME280;11820;48.738;9.092;2022-12-18T14:12:44;97332.50;;;0.26;nan
23303;BME280;11820;48.738;9.092;2022-12-18T14:17:55;97325.50;;;0.05;nan
23303;BME280;11820;48.738;9.092;2022-12-18T14:20:22;97335.97;;;0.00;nan
23303;BME280;11820;48.738;9.092;2022-12-18T14:22:49;97335.28;;;-0.14;nan
23303;BME280;11820;48.738;9.092;2022-12-18T14:25:19;97334.56;;;-0.16;nan
23303;BME280;11820;48.738;9.092;2022-12-18T14:27:51;97329.06;;;-0.22;nan
23303;BME280;11820;48.738;9.092;2022-12-18T14:35:29;97335.56;;;-0.43;nan
23303;BME280;11820;48.738;9.092;2022-12-18T14:40:43;97330.88;;;-0.62;nan
23303;BME280;11820;48.738;9.092;2022-12-18T14:43:12;97332.19;;;-0.69;nan
23303;BME280;11820;48.738;9.092;2022-12-18T14:48:08;97338.97;;;-0.69;nan
23303;BME280;11820;48.738;9.092;2022-12-18T14:50:34;97348.09;;;-0.79;nan
23303;BME280;11820;48.738;9.092;2022-12-18T14:53:00;97342.75;;;-1.01;nan
23303;BME280;11820;48.738;9.092;2022-12-18T14:55:25;97341.25;;;-0.91;nan
23303;BME280;11820;48.738;9.092;2022-12-18T14:57:55;97339.31;;;-1.00;nan
23303;BME280;11820;48.738;9.092;2022-12-18T15:00:23;97348.06;;;-1.18;nan
23303;BME280;11820;48.738;9.092;2022-12-18T15:02:55;97345.91;;;-1.24;nan
23303;BME280;11820;48.738;9.092;2022-12-18T15:05:27;97345.53;;;-1.18;nan
23303;BME280;11820;48.738;9.092;2022-12-18T15:07:55;97349.88;;;-1.20;nan
23303;BME280;11820;48.738;9.092;2022-12-18T15:10:23;97346.03;;;-1.26;nan
23303;BME280;11820;48.738;9.092;2022-12-18T15:20:55;97347.78;;;-1.54;nan
23303;BME280;11820;48.738;9.092;2022-12-18T15:25:49;97332.25;;;-1.62;nan
23303;BME280;11820;48.738;9.092;2022-12-18T15:28:24;97338.38;;;-1.66;nan